Terminal Aerodrome Forecast
Issued by NWS

Home | Current Version | Previous Version | Graphics & Text | Print | Product List | Glossary Off
Versions: 1 2 3 4 5 6 7 8 9 10 11 12

731
FTUS43 KMPX 280532
TAFRWF
TAF
KRWF 280532Z 2806/2906 15012G18KT 6SM SHRA VCTS SCT025 BKN040CB
      TEMPO 2806/2808 2SM +TSRA BR BKN012CB
     FM280800 15012G18KT P6SM -SHRA VCTS BKN015CB OVC040
     FM281100 18012KT P6SM SCT015 BKN025
     FM281700 23012KT P6SM VCSH BKN040
     FM282000 29013KT P6SM BKN090=

USA.gov is the U.S. government's official web portal to all federal, state and local government web resources and services.